Time;durP1;ratioP1;P1;durP2;ratioP2;P2;SDS_P1;SDS_P2;PMS_P1;PMS_P2;Temp;Humidity;BMP_temperature;BMP_pressure;BME280_temperature;BME280_humidity;BME280_pressure;Samples;Min_cycle;Max_cycle;Signal;HPM_P1;HPM_P2
2023/04/17 10:40:20;;;;;;;18.05;11.07;;;;;;;8.75;96.76;97083.72;2082716;28;21069;-63
2023/04/17 10:41:22;;;;;;;18.48;9.80;;;;;;;8.98;96.45;97080.41;2075257;28;20242;-63
2023/04/17 10:42:24;;;;;;;17.17;10.23;;;;;;;9.38;95.37;97080.03;2071082;28;20202;-63
2023/04/17 10:43:26;;;;;;;16.77;9.43;;;;;;;9.86;93.22;97081.03;2074607;28;20201;-63
2023/04/17 10:44:37;;;;;;;14.60;9.00;;;;;;;10.28;90.98;97083.00;2073340;28;20625;-63
2023/04/17 10:45:58;;;;;;;13.75;8.50;;;;;;;10.41;89.57;97076.47;2074880;28;20228;-63
2023/04/17 10:47:09;;;;;;;11.98;7.97;;;;;;;10.56;88.72;97071.56;2074345;28;20357;-63
2023/04/17 10:48:34;;;;;;;10.90;7.80;;;;;;;10.89;86.69;97077.28;2074372;28;20204;-63
2023/04/17 10:49:58;;;;;;;9.95;6.65;;;;;;;11.00;85.88;97074.22;2069987;28;20197;-64
2023/04/17 10:51:21;;;;;;;10.98;8.15;;;;;;;11.26;87.07;97070.56;2073257;28;20197;-65
2023/04/17 10:52:31;;;;;;;10.65;7.10;;;;;;;11.20;85.68;97070.81;2074394;28;20206;-65
2023/04/17 10:53:41;;;;;;;14.73;7.32;;;;;;;11.30;85.50;97067.81;2076044;28;20213;-65
2023/04/17 10:55:09;;;;;;;11.30;7.03;;;;;;;10.91;85.68;97069.38;2078460;28;20208;-65
2023/04/17 10:56:17;;;;;;;10.00;6.78;;;;;;;11.15;84.88;97069.28;2077014;28;20202;-65
2023/04/17 10:57:51;;;;;;;9.15;6.43;;;;;;;11.37;84.48;97071.91;2074354;28;20655;-65
2023/04/17 10:59:00;;;;;;;9.05;5.70;;;;;;;11.49;84.98;97071.41;2075607;28;20226;-65
2023/04/17 11:00:15;;;;;;;11.88;6.20;;;;;;;11.36;85.33;97063.19;2072347;28;20322;-65
2023/04/17 11:01:16;;;;;;;9.80;6.50;;;;;;;11.24;84.44;97068.94;2075853;28;20211;-65
2023/04/17 11:02:32;;;;;;;10.60;6.78;;;;;;;11.38;84.64;97061.38;2074518;28;20258;-65
2023/04/17 11:03:38;;;;;;;9.80;5.88;;;;;;;11.53;84.29;97072.97;2074939;28;20212;-65
2023/04/17 11:04:39;;;;;;;9.98;5.95;;;;;;;11.29;85.22;97064.38;2072699;28;20660;-65
2023/04/17 11:05:45;;;;;;;9.20;5.47;;;;;;;11.42;83.67;97052.47;2074439;28;20205;-65
2023/04/17 11:06:48;;;;;;;8.70;5.57;;;;;;;11.54;85.60;97063.34;2075053;28;20193;-65
2023/04/17 11:07:50;;;;;;;8.48;5.68;;;;;;;11.65;85.88;97062.91;2073691;28;20216;-65
2023/04/17 11:08:54;;;;;;;9.77;6.22;;;;;;;11.75;85.86;97059.81;2073898;28;20305;-65
2023/04/17 11:09:58;;;;;;;9.57;6.75;;;;;;;11.63;84.47;97067.34;2071949;28;20688;-65
2023/04/17 11:10:59;;;;;;;10.20;6.70;;;;;;;11.24;84.36;97061.09;2072384;28;20194;-65
2023/04/17 11:12:01;;;;;;;10.93;6.18;;;;;;;11.41;84.09;97063.88;2075501;28;20611;-65
2023/04/17 11:13:03;;;;;;;10.40;6.82;;;;;;;11.47;84.18;97054.06;2075319;28;20233;-65
2023/04/17 11:14:12;;;;;;;10.38;6.50;;;;;;;11.57;83.53;97058.84;2078269;28;20197;-65
2023/04/17 11:15:15;;;;;;;9.20;5.93;;;;;;;11.60;83.87;97057.84;2077268;28;20220;-65
2023/04/17 11:16:19;;;;;;;9.95;6.35;;;;;;;11.50;84.64;97062.63;2073769;28;20210;-65
2023/04/17 11:17:21;;;;;;;10.40;7.22;;;;;;;11.51;83.33;97059.09;2075690;28;20212;-65
2023/04/17 11:18:23;;;;;;;10.38;6.20;;;;;;;11.32;84.17;97045.09;2073617;28;20197;-65
2023/04/17 11:19:24;;;;;;;10.13;5.28;;;;;;;11.17;84.46;97055.25;2074760;28;20237;-64
2023/04/17 11:20:31;;;;;;;11.48;5.35;;;;;;;11.18;84.39;97061.34;2072704;28;20233;-65
2023/04/17 11:21:32;;;;;;;9.50;5.20;;;;;;;10.91;83.88;97058.91;2073779;28;20263;-65
2023/04/17 11:22:34;;;;;;;9.52;5.60;;;;;;;11.03;83.54;97049.72;2077767;28;20681;-65
2023/04/17 11:23:36;;;;;;;8.77;5.63;;;;;;;11.00;83.70;97053.31;2077950;28;20204;-65
2023/04/17 11:24:37;;;;;;;9.77;5.53;;;;;;;11.04;85.12;97046.22;2073479;28;20765;-64
2023/04/17 11:25:39;;;;;;;8.02;5.18;;;;;;;10.97;83.99;97053.47;2073456;28;20239;-65
2023/04/17 11:26:49;;;;;;;6.72;4.82;;;;;;;10.80;84.43;97035.81;2074214;28;20210;-64
2023/04/17 11:27:59;;;;;;;9.88;6.40;;;;;;;10.93;85.21;97052.72;2072787;28;20205;-64
2023/04/17 11:29:00;;;;;;;9.18;4.55;;;;;;;10.94;84.79;97051.81;2074252;28;20661;-64
2023/04/17 11:30:02;;;;;;;8.18;5.57;;;;;;;11.00;86.58;97052.47;2072486;28;20218;-65
2023/04/17 11:31:03;;;;;;;17.15;6.80;;;;;;;10.98;86.05;97049.06;2075083;28;20849;-64
2023/04/17 11:32:09;;;;;;;8.55;5.18;;;;;;;10.96;85.52;97051.75;2070313;28;20201;-65
2023/04/17 12:38:44;;;;;;;9.50;5.85;;;;;;;9.56;94.18;97062.91;2087429;28;20794;-64
2023/04/17 12:41:01;;;;;;;12.25;6.30;;;;;;;9.75;93.12;97061.38;2100197;27;20552;-64
2023/04/17 12:42:02;;;;;;;9.27;6.00;;;;;;;9.79;93.86;97054.31;2100021;28;20210;-64
2023/04/17 12:43:04;;;;;;;11.75;6.47;;;;;;;10.05;94.03;97058.59;2095754;28;20204;-64
2023/04/17 12:44:05;;;;;;;10.77;6.57;;;;;;;10.24;93.41;97056.16;2096717;28;20200;-65
2023/04/17 12:45:08;;;;;;;227.15;126.10;;;;;;;10.42;92.72;97064.25;2088582;27;20248;-65
2023/04/17 12:46:10;;;;;;;118.93;65.65;;;;;;;10.57;91.71;97057.59;2080983;28;20683;-65
2023/04/17 12:47:11;;;;;;;34.60;22.20;;;;;;;10.64;92.09;97053.00;2079008;28;20201;-64
2023/04/17 12:48:13;;;;;;;41.70;24.20;;;;;;;10.36;91.31;97057.50;2083386;28;20200;-65
2023/04/17 12:49:15;;;;;;;16.88;7.85;;;;;;;10.39;90.92;97049.56;2083618;28;20283;-66
2023/04/17 12:50:16;;;;;;;11.18;7.20;;;;;;;10.46;90.51;97047.56;2087260;28;20687;-65
2023/04/17 12:51:18;;;;;;;11.35;7.20;;;;;;;10.54;91.70;97047.25;2089684;28;20741;-65
2023/04/17 12:52:19;;;;;;;14.45;6.45;;;;;;;10.61;90.50;97049.59;2089308;28;20215;-65
2023/04/17 12:54:49;;;;;;;12.20;7.05;;;;;;;10.31;89.75;97051.59;2085923;28;20574;-65
2023/04/17 13:07:32;;;;;;;10.55;6.35;;;;;;;10.39;88.88;97033.88;2089805;28;20582;-65
2023/04/17 13:13:16;;;;;;;10.63;6.45;;;;;;;10.49;88.91;97042.22;2085130;28;20567;-65
2023/04/17 13:15:39;;;;;;;15.60;6.60;;;;;;;10.58;90.00;97035.81;2085066;28;20548;-65
2023/04/17 13:18:09;;;;;;;10.88;6.15;;;;;;;10.70;88.09;97037.09;2105499;27;20553;-65
2023/04/17 14:05:41;;;;;;;10.02;6.03;;;;;;;9.99;85.48;97029.25;2083278;28;20557;-65
2023/04/17 14:07:57;;;;;;;8.82;5.45;;;;;;;9.94;84.09;97013.78;2093080;27;20567;-65
2023/04/17 14:10:26;;;;;;;15.02;6.13;;;;;;;10.02;83.20;97016.09;2074974;27;20573;-64
2023/04/17 14:12:51;;;;;;;8.43;5.00;;;;;;;9.89;83.09;97021.78;2092044;28;20554;-67
2023/04/17 15:04:03;;;;;;;8.95;5.13;;;;;;;10.38;81.30;96994.81;2085451;28;20554;-64
2023/04/17 15:06:20;;;;;;;9.57;5.95;;;;;;;10.32;81.01;97006.28;2087359;28;20573;-64
2023/04/17 15:07:21;;;;;;;11.65;5.90;;;;;;;10.28;81.42;97008.19;2087006;28;20233;-64
2023/04/17 15:09:39;;;;;;;9.65;5.70;;;;;;;10.41;80.70;97008.59;2083389;28;20571;-64
2023/04/17 15:10:40;;;;;;;7.35;4.90;;;;;;;10.36;82.01;97007.91;2082301;28;20214;-64
2023/04/17 15:13:12;;;;;;;9.65;6.30;;;;;;;10.31;81.17;97007.22;2085077;28;20923;-64
2023/04/17 15:14:13;;;;;;;11.05;6.75;;;;;;;10.31;81.95;97007.22;2082853;28;20193;-64
2023/04/17 15:16:46;;;;;;;7.32;5.55;;;;;;;10.30;81.71;97001.13;2084779;28;20558;-62
2023/04/17 15:17:48;;;;;;;90.63;51.97;;;;;;;10.30;82.18;97000.28;2079160;28;20415;-62
2023/04/17 15:18:50;;;;;;;135.25;71.20;;;;;;;10.47;81.66;97011.88;2079979;28;20242;-65
2023/04/17 15:21:09;;;;;;;93.68;47.50;;;;;;;10.37;80.92;97006.16;2085141;28;20570;-63
2023/04/17 15:23:30;;;;;;;9.23;6.00;;;;;;;10.20;81.61;97017.19;2092525;27;20561;-60
2023/04/17 15:25:56;;;;;;;8.00;5.38;;;;;;;10.27;81.59;97013.44;2091186;28;20553;-60
2023/04/17 15:28:24;;;;;;;10.73;5.43;;;;;;;10.23;82.14;97004.88;2086608;28;21120;-60
